RJAZ(METAR)
04/28 17:00
RJAZ 280800Z 26015G27KT CAVOK 17/05 Q1006 RMK A2971=
戻る
トップページへ戻る
IMOC Co,.Ltd.